MSR985 HECA-KJFK
Flight info
| Callsign | MSR985 |
|---|---|
| Flight time | N/A |
| Altitude | 32000 |
| Route | HECA/23C MENKU L617 NABSI M872 METRU/N0485F340 UL81 LORNO DCT KOGEB DCT VARAL DCT ELVIN DCT DOBIM R16 AKUTI UM616 NOQAS DCT DIBAG DCT GALOF DCT COQUE DCT TULTA/M084F360 DCT GUNSO DCT SOMAX DCT 51N020W 51N030W 51N040W 50N050W DCT ELSIR/N0492F380 N402C ALLEX DCT ENE PARCH4 |
| Aircraft | B77W/H-SDE1E2E3FGHIJ2J3J4J5M1RWXY/LB1D1 |
Departure
| Time | 2026-05-04 13:35 |
|---|---|
| Airport | Cairo International Airport (HECA) |
Arrival
| Time | N/A |
|---|---|
| Airport | John F. Kennedy International Airport (KJFK) |
| Time | Latitude | Longitude | Altitude | Speed | Heading |
|---|---|---|---|---|---|
| 2026-05-04 13:05 | 30.10919 | 31.39833 | 379 ft | 0 kts | 75° |
| 2026-05-04 13:09 | 30.10918 | 31.39827 | 379 ft | 4 kts | 73° |
| 2026-05-04 13:09 | 30.10905 | 31.39800 | 379 ft | 4 kts | 59° |
| 2026-05-04 13:10 | 30.10896 | 31.39777 | 379 ft | 4 kts | 89° |
| 2026-05-04 13:10 | 30.10905 | 31.39753 | 379 ft | 4 kts | 146° |
| 2026-05-04 13:10 | 30.10928 | 31.39739 | 379 ft | 4 kts | 162° |
| 2026-05-04 13:10 | 30.10946 | 31.39734 | 379 ft | 0 kts | 165° |
| 2026-05-04 13:13 | 30.10936 | 31.39737 | 379 ft | 3 kts | 165° |
| 2026-05-04 13:13 | 30.10911 | 31.39744 | 379 ft | 5 kts | 165° |
| 2026-05-04 13:13 | 30.10876 | 31.39755 | 379 ft | 6 kts | 165° |
| 2026-05-04 13:14 | 30.10835 | 31.39767 | 379 ft | 6 kts | 165° |
| 2026-05-04 13:14 | 30.10789 | 31.39781 | 379 ft | 7 kts | 165° |
| 2026-05-04 13:14 | 30.10740 | 31.39796 | 379 ft | 7 kts | 165° |
| 2026-05-04 13:14 | 30.10692 | 31.39810 | 379 ft | 7 kts | 165° |
| 2026-05-04 13:15 | 30.10644 | 31.39825 | 379 ft | 7 kts | 165° |
| 2026-05-04 13:15 | 30.10596 | 31.39839 | 379 ft | 7 kts | 165° |
| 2026-05-04 13:15 | 30.10548 | 31.39854 | 379 ft | 7 kts | 163° |
| 2026-05-04 13:15 | 30.10504 | 31.39882 | 379 ft | 7 kts | 139° |
| 2026-05-04 13:16 | 30.10486 | 31.39934 | 379 ft | 7 kts | 91° |
| 2026-05-04 13:16 | 30.10507 | 31.39985 | 379 ft | 7 kts | 51° |
| 2026-05-04 13:16 | 30.10539 | 31.40030 | 379 ft | 7 kts | 50° |
| 2026-05-04 13:16 | 30.10572 | 31.40075 | 379 ft | 7 kts | 50° |
| 2026-05-04 13:17 | 30.10605 | 31.40120 | 379 ft | 7 kts | 50° |
| 2026-05-04 13:17 | 30.10637 | 31.40165 | 379 ft | 7 kts | 50° |
| 2026-05-04 13:17 | 30.10670 | 31.40209 | 379 ft | 7 kts | 50° |
| 2026-05-04 13:17 | 30.10692 | 31.40239 | 379 ft | 7 kts | 50° |
| 2026-05-04 13:18 | 30.10707 | 31.40292 | 379 ft | 7 kts | 103° |
| 2026-05-04 13:18 | 30.10682 | 31.40343 | 379 ft | 7 kts | 105° |
| 2026-05-04 13:18 | 30.10696 | 31.40399 | 379 ft | 8 kts | 51° |
| 2026-05-04 13:18 | 30.10731 | 31.40445 | 379 ft | 8 kts | 49° |
| 2026-05-04 13:19 | 30.10766 | 31.40491 | 379 ft | 8 kts | 49° |
| 2026-05-04 13:19 | 30.10801 | 31.40537 | 379 ft | 8 kts | 49° |
| 2026-05-04 13:19 | 30.10836 | 31.40583 | 379 ft | 8 kts | 49° |
| 2026-05-04 13:19 | 30.10871 | 31.40629 | 379 ft | 8 kts | 50° |
| 2026-05-04 13:20 | 30.10905 | 31.40676 | 379 ft | 8 kts | 49° |
| 2026-05-04 13:20 | 30.10940 | 31.40722 | 379 ft | 8 kts | 49° |
| 2026-05-04 13:20 | 30.10975 | 31.40768 | 379 ft | 8 kts | 49° |
| 2026-05-04 13:20 | 30.11009 | 31.40814 | 379 ft | 8 kts | 49° |
| 2026-05-04 13:21 | 30.11044 | 31.40860 | 379 ft | 8 kts | 49° |
| 2026-05-04 13:21 | 30.11079 | 31.40906 | 379 ft | 8 kts | 49° |
| 2026-05-04 13:21 | 30.11114 | 31.40953 | 379 ft | 8 kts | 49° |
| 2026-05-04 13:21 | 30.11148 | 31.40999 | 379 ft | 8 kts | 49° |
| 2026-05-04 13:22 | 30.11183 | 31.41045 | 379 ft | 8 kts | 49° |
| 2026-05-04 13:22 | 30.11218 | 31.41091 | 379 ft | 8 kts | 49° |
| 2026-05-04 13:22 | 30.11253 | 31.41137 | 379 ft | 8 kts | 49° |
| 2026-05-04 13:22 | 30.11287 | 31.41183 | 379 ft | 8 kts | 49° |
| 2026-05-04 13:23 | 30.11322 | 31.41229 | 379 ft | 8 kts | 49° |
| 2026-05-04 13:23 | 30.11357 | 31.41276 | 379 ft | 8 kts | 49° |
| 2026-05-04 13:23 | 30.11392 | 31.41322 | 379 ft | 8 kts | 49° |
| 2026-05-04 13:23 | 30.11426 | 31.41368 | 379 ft | 8 kts | 49° |
| 2026-05-04 13:24 | 30.11461 | 31.41413 | 379 ft | 8 kts | 49° |
| 2026-05-04 13:24 | 30.11495 | 31.41459 | 379 ft | 8 kts | 49° |
| 2026-05-04 13:24 | 30.11530 | 31.41505 | 379 ft | 8 kts | 49° |
| 2026-05-04 13:25 | 30.11599 | 31.41598 | 379 ft | 8 kts | 49° |
| 2026-05-04 13:25 | 30.11634 | 31.41644 | 379 ft | 8 kts | 49° |
| 2026-05-04 13:25 | 30.11669 | 31.41690 | 379 ft | 8 kts | 49° |
| 2026-05-04 13:25 | 30.11704 | 31.41736 | 379 ft | 8 kts | 49° |
| 2026-05-04 13:26 | 30.11738 | 31.41782 | 379 ft | 8 kts | 49° |
| 2026-05-04 13:26 | 30.11773 | 31.41828 | 379 ft | 8 kts | 49° |
| 2026-05-04 13:26 | 30.11808 | 31.41874 | 379 ft | 8 kts | 49° |
| 2026-05-04 13:26 | 30.11843 | 31.41920 | 379 ft | 8 kts | 49° |
| 2026-05-04 13:27 | 30.11877 | 31.41966 | 379 ft | 8 kts | 49° |
| 2026-05-04 13:27 | 30.11912 | 31.42013 | 379 ft | 8 kts | 49° |
| 2026-05-04 13:27 | 30.11947 | 31.42059 | 379 ft | 8 kts | 49° |
| 2026-05-04 13:27 | 30.11981 | 31.42105 | 379 ft | 8 kts | 49° |
| 2026-05-04 13:28 | 30.12016 | 31.42151 | 379 ft | 8 kts | 49° |
| 2026-05-04 13:28 | 30.12051 | 31.42197 | 379 ft | 8 kts | 49° |
| 2026-05-04 13:28 | 30.12085 | 31.42242 | 379 ft | 8 kts | 49° |
| 2026-05-04 13:28 | 30.12120 | 31.42288 | 379 ft | 8 kts | 49° |
| 2026-05-04 13:29 | 30.12155 | 31.42335 | 379 ft | 8 kts | 49° |
| 2026-05-04 13:29 | 30.12189 | 31.42380 | 379 ft | 8 kts | 49° |
| 2026-05-04 13:29 | 30.12224 | 31.42426 | 379 ft | 8 kts | 49° |
| 2026-05-04 13:29 | 30.12258 | 31.42472 | 379 ft | 8 kts | 49° |
| 2026-05-04 13:30 | 30.12293 | 31.42519 | 379 ft | 8 kts | 49° |
| 2026-05-04 13:30 | 30.12328 | 31.42565 | 379 ft | 8 kts | 49° |
| 2026-05-04 13:30 | 30.12362 | 31.42611 | 379 ft | 8 kts | 49° |
| 2026-05-04 13:30 | 30.12397 | 31.42657 | 379 ft | 8 kts | 49° |
| 2026-05-04 13:31 | 30.12432 | 31.42703 | 379 ft | 8 kts | 49° |
| 2026-05-04 13:31 | 30.12463 | 31.42752 | 379 ft | 8 kts | 62° |
| 2026-05-04 13:31 | 30.12473 | 31.42811 | 379 ft | 8 kts | 90° |
| 2026-05-04 13:31 | 30.12471 | 31.42834 | 379 ft | 0 kts | 98° |
| 2026-05-04 13:32 | 30.12471 | 31.42838 | 379 ft | 2 kts | 98° |
| 2026-05-04 13:32 | 30.12465 | 31.42860 | 379 ft | 4 kts | 112° |
| 2026-05-04 13:32 | 30.12442 | 31.42895 | 379 ft | 7 kts | 134° |
| 2026-05-04 13:33 | 30.12393 | 31.42922 | 379 ft | 9 kts | 169° |
| 2026-05-04 13:33 | 30.12327 | 31.42924 | 378 ft | 6 kts | 187° |
| 2026-05-04 13:33 | 30.12286 | 31.42901 | 376 ft | 7 kts | 219° |
| 2026-05-04 13:33 | 30.12278 | 31.42892 | 377 ft | 0 kts | 225° |
| 2026-05-04 13:34 | 30.12275 | 31.42888 | 377 ft | 7 kts | 225° |
| 2026-05-04 13:34 | 30.12039 | 31.42580 | 377 ft | 98 kts | 229° |
| 2026-05-04 13:34 | 30.11382 | 31.41705 | 382 ft | 189 kts | 229° |
| 2026-05-04 13:34 | 30.10375 | 31.40349 | 631 ft | 252 kts | 230° |
| 2026-05-04 13:35 | 30.09156 | 31.38702 | 1636 ft | 278 kts | 232° |
| 2026-05-04 13:35 | 30.08600 | 31.34707 | 4047 ft | 259 kts | 296° |
| 2026-05-04 13:35 | 30.09785 | 31.33157 | 4783 ft | 264 kts | 330° |
| 2026-05-04 13:36 | 30.11481 | 31.32323 | 5442 ft | 268 kts | 340° |
| 2026-05-04 13:36 | 30.13261 | 31.31611 | 6205 ft | 272 kts | 340° |
| 2026-05-04 13:36 | 30.15041 | 31.30851 | 6998 ft | 274 kts | 337° |
| 2026-05-04 13:36 | 30.16780 | 31.29925 | 7764 ft | 277 kts | 332° |
| 2026-05-04 13:37 | 30.18466 | 31.28825 | 8524 ft | 279 kts | 328° |
| 2026-05-04 13:37 | 30.20096 | 31.27583 | 9228 ft | 283 kts | 324° |
| 2026-05-04 13:37 | 30.21687 | 31.26228 | 9926 ft | 286 kts | 322° |
| 2026-05-04 13:37 | 30.22727 | 31.25281 | 10357 ft | 290 kts | 321° |
| 2026-05-04 13:38 | 30.24892 | 31.23193 | 10705 ft | 319 kts | 319° |
| 2026-05-04 13:38 | 30.26623 | 31.21441 | 10903 ft | 342 kts | 318° |
| 2026-05-04 13:38 | 30.28448 | 31.19543 | 11144 ft | 363 kts | 317° |
| 2026-05-04 13:38 | 30.30341 | 31.17531 | 11701 ft | 374 kts | 317° |
| 2026-05-04 13:39 | 30.32259 | 31.15463 | 12419 ft | 380 kts | 316° |
| 2026-05-04 13:39 | 30.34193 | 31.13359 | 13224 ft | 383 kts | 316° |
| 2026-05-04 13:39 | 30.36140 | 31.11231 | 14006 ft | 387 kts | 316° |
| 2026-05-04 13:39 | 30.38099 | 31.09083 | 14738 ft | 391 kts | 316° |
| 2026-05-04 13:40 | 30.40090 | 31.06896 | 15453 ft | 395 kts | 316° |
| 2026-05-04 13:40 | 30.42068 | 31.04722 | 16144 ft | 400 kts | 316° |
| 2026-05-04 13:40 | 30.44120 | 31.02466 | 16844 ft | 404 kts | 316° |
| 2026-05-04 13:40 | 30.46171 | 31.00211 | 17531 ft | 408 kts | 316° |
| 2026-05-04 13:41 | 30.48208 | 30.97969 | 18201 ft | 411 kts | 316° |
| 2026-05-04 13:41 | 30.50295 | 30.95671 | 18843 ft | 416 kts | 316° |
| 2026-05-04 13:41 | 30.52402 | 30.93348 | 19454 ft | 420 kts | 316° |
| 2026-05-04 13:42 | 30.56674 | 30.88638 | 20665 ft | 427 kts | 316° |
| 2026-05-04 13:42 | 30.58836 | 30.86252 | 21242 ft | 431 kts | 316° |
| 2026-05-04 13:42 | 30.61016 | 30.83843 | 21809 ft | 435 kts | 316° |
| 2026-05-04 13:42 | 30.63215 | 30.81411 | 22359 ft | 438 kts | 316° |
| 2026-05-04 13:43 | 30.65434 | 30.78956 | 22881 ft | 442 kts | 316° |
| 2026-05-04 13:43 | 30.67666 | 30.76485 | 23409 ft | 445 kts | 316° |
| 2026-05-04 13:43 | 30.69917 | 30.73991 | 23907 ft | 449 kts | 316° |
| 2026-05-04 13:43 | 30.72185 | 30.71479 | 24394 ft | 452 kts | 316° |
| 2026-05-04 13:44 | 30.74464 | 30.68951 | 24872 ft | 455 kts | 316° |
| 2026-05-04 13:44 | 30.76766 | 30.66397 | 25320 ft | 458 kts | 316° |
| 2026-05-04 13:44 | 30.79076 | 30.63831 | 25761 ft | 462 kts | 316° |
| 2026-05-04 13:44 | 30.81406 | 30.61241 | 26199 ft | 465 kts | 316° |
| 2026-05-04 13:45 | 30.83750 | 30.58633 | 26614 ft | 468 kts | 316° |
| 2026-05-04 13:45 | 30.86110 | 30.56006 | 27007 ft | 471 kts | 316° |
| 2026-05-04 13:45 | 30.88472 | 30.53375 | 27401 ft | 473 kts | 316° |
| 2026-05-04 13:45 | 30.90858 | 30.50715 | 27773 ft | 476 kts | 316° |
| 2026-05-04 13:46 | 30.93264 | 30.48031 | 28134 ft | 479 kts | 316° |
| 2026-05-04 13:46 | 30.95672 | 30.45342 | 28485 ft | 481 kts | 316° |
| 2026-05-04 13:46 | 30.98091 | 30.42639 | 28817 ft | 483 kts | 316° |
| 2026-05-04 13:46 | 31.00525 | 30.39918 | 29126 ft | 486 kts | 316° |
| 2026-05-04 13:47 | 31.02975 | 30.37177 | 29426 ft | 488 kts | 316° |
| 2026-05-04 13:47 | 31.05423 | 30.34427 | 29755 ft | 489 kts | 314° |
| 2026-05-04 13:47 | 31.07641 | 30.31434 | 30129 ft | 488 kts | 305° |
| 2026-05-04 13:47 | 31.09444 | 30.28092 | 30542 ft | 486 kts | 298° |
| 2026-05-04 13:48 | 31.10874 | 30.24532 | 30920 ft | 485 kts | 290° |
| 2026-05-04 13:48 | 31.11915 | 30.20798 | 31282 ft | 484 kts | 287° |
| 2026-05-04 13:48 | 31.12874 | 30.17089 | 31620 ft | 483 kts | 287° |
| 2026-05-04 13:48 | 31.13862 | 30.13288 | 31912 ft | 484 kts | 287° |
| 2026-05-04 13:49 | 31.15859 | 30.05872 | 32001 ft | 487 kts | 288° |
| 2026-05-04 13:49 | 31.17979 | 29.98413 | 31982 ft | 482 kts | 292° |
| 2026-05-04 13:50 | 31.21029 | 29.91468 | 31998 ft | 481 kts | 302° |
| 2026-05-04 13:50 | 31.24936 | 29.85118 | 32003 ft | 481 kts | 306° |
| 2026-05-04 13:51 | 31.28907 | 29.78873 | 32004 ft | 482 kts | 306° |
| 2026-05-04 13:51 | 31.32905 | 29.72508 | 32003 ft | 483 kts | 306° |
| 2026-05-04 13:52 | 31.38838 | 29.62966 | 32002 ft | 484 kts | 306° |
| 2026-05-04 13:53 | 31.42771 | 29.56623 | 32001 ft | 484 kts | 306° |
| 2026-05-04 13:53 | 31.46728 | 29.50234 | 32001 ft | 484 kts | 306° |
| 2026-05-04 13:54 | 31.52652 | 29.40650 | 32001 ft | 484 kts | 306° |
| 2026-05-04 13:55 | 31.58565 | 29.31061 | 32001 ft | 484 kts | 306° |
| 2026-05-04 13:55 | 31.64443 | 29.21439 | 32001 ft | 483 kts | 305° |
| 2026-05-04 13:56 | 31.68349 | 29.15018 | 32001 ft | 483 kts | 305° |
| 2026-05-04 13:57 | 31.74205 | 29.05387 | 32001 ft | 483 kts | 305° |
| 2026-05-04 13:58 | 31.82039 | 28.92535 | 32133 ft | 486 kts | 305° |
| 2026-05-04 13:58 | 31.87939 | 28.82826 | 32045 ft | 482 kts | 305° |
| 2026-05-04 13:59 | 31.91819 | 28.76425 | 32012 ft | 480 kts | 305° |
| 2026-05-04 14:00 | 31.97623 | 28.66828 | 32003 ft | 480 kts | 305° |
| 2026-05-04 14:00 | 32.03420 | 28.57220 | 32003 ft | 482 kts | 305° |
| 2026-05-04 14:01 | 32.07299 | 28.50777 | 32002 ft | 483 kts | 305° |
| 2026-05-04 14:02 | 32.13127 | 28.41076 | 32002 ft | 483 kts | 305° |
| 2026-05-04 14:02 | 32.17011 | 28.34599 | 32001 ft | 484 kts | 305° |
| 2026-05-04 14:03 | 32.20891 | 28.28115 | 32001 ft | 483 kts | 305° |
| 2026-05-04 14:03 | 32.24773 | 28.21618 | 32001 ft | 483 kts | 305° |
| 2026-05-04 14:04 | 32.30566 | 28.11901 | 32001 ft | 483 kts | 305° |
| 2026-05-04 14:04 | 32.34431 | 28.05405 | 32001 ft | 482 kts | 305° |
| 2026-05-04 14:05 | 32.39563 | 27.96762 | 32001 ft | 482 kts | 305° |
| 2026-05-04 14:06 | 32.43414 | 27.90263 | 32001 ft | 482 kts | 305° |
| 2026-05-04 14:06 | 32.47263 | 27.83756 | 32001 ft | 482 kts | 305° |
| 2026-05-04 14:07 | 32.51107 | 27.77246 | 32001 ft | 482 kts | 304° |
| 2026-05-04 14:07 | 32.54949 | 27.70729 | 32001 ft | 482 kts | 304° |
| 2026-05-04 14:08 | 32.58785 | 27.64210 | 32001 ft | 482 kts | 304° |
| 2026-05-04 14:08 | 32.62623 | 27.57676 | 32001 ft | 483 kts | 304° |
| 2026-05-04 14:09 | 32.67634 | 27.49126 | 32001 ft | 483 kts | 304° |
| 2026-05-04 14:10 | 32.73377 | 27.39309 | 32001 ft | 483 kts | 304° |
| 2026-05-04 14:10 | 32.77202 | 27.32757 | 32001 ft | 483 kts | 304° |
| 2026-05-04 14:11 | 32.81023 | 27.26197 | 32001 ft | 482 kts | 304° |
| 2026-05-04 14:11 | 32.86744 | 27.16355 | 32001 ft | 482 kts | 304° |
| 2026-05-04 14:12 | 32.90551 | 27.09790 | 32001 ft | 482 kts | 304° |
| 2026-05-04 14:13 | 32.96244 | 26.99951 | 32001 ft | 482 kts | 304° |
| 2026-05-04 14:13 | 33.00040 | 26.93369 | 32001 ft | 482 kts | 304° |
| 2026-05-04 14:14 | 33.03823 | 26.86774 | 32001 ft | 482 kts | 304° |
| 2026-05-04 14:14 | 33.09494 | 26.76859 | 32002 ft | 483 kts | 304° |
| 2026-05-04 14:15 | 33.17053 | 26.63611 | 32002 ft | 483 kts | 304° |
| 2026-05-04 14:16 | 33.22721 | 26.53646 | 32001 ft | 483 kts | 304° |
| 2026-05-04 14:17 | 33.28371 | 26.43685 | 32001 ft | 483 kts | 304° |
| 2026-05-04 14:18 | 33.33984 | 26.33763 | 32001 ft | 482 kts | 304° |
| 2026-05-04 14:19 | 33.41527 | 26.20389 | 32047 ft | 490 kts | 304° |
| 2026-05-04 14:19 | 33.45306 | 26.13670 | 31999 ft | 482 kts | 304° |
| 2026-05-04 14:20 | 33.49042 | 26.07015 | 32005 ft | 482 kts | 303° |